EW3429 Weather Reports


Display with metric or nautical units.
time (UTC)temp
F
wind
direction
speed
MPH
gust
MPH
rain 1hr
in
rain 24hr
in
rain mn
in
humidity
%
barometer
mb
20181120151516 38 40 3.0 0.0 0.00 0.00 0.23 94 1014.0
20181120151434 38 40 3.0 0.0 0.00 0.00 0.23 94 1014.1
20181120151346 38 40 3.0 0.0 0.00 0.00 0.23 94 1013.9
20181120151304 38 40 3.0 0.0 0.00 0.00 0.23 94 1013.9
20181120151216 38 40 3.0 0.0 0.00 0.00 0.23 94 1014.1
20181120151128 38 40 3.0 0.0 0.00 0.00 0.23 94 1014.1
20181120151046 38 40 3.0 0.0 0.00 0.00 0.23 94 1014.1
20181120150958 38 40 3.0 0.0 0.00 0.00 0.23 94 1014.1
20181120150915 38 40 3.0 0.0 0.00 0.00 0.23 94 1014.1
20181120150828 38 40 3.0 0.0 0.00 0.00 0.23 94 1014.2
20181120150740 38 40 3.0 0.0 0.00 0.00 0.23 94 1014.1
20181120150658 38 40 3.0 0.0 0.00 0.00 0.23 94 1014.1
20181120150610 38 40 3.0 0.0 0.00 0.00 0.23 94 1014.1
20181120150246 38 40 3.0 4.0 0.03 0.22 0.23 94 1014.1
20181120145742 38 40 3.0 4.0 0.03 0.22 0.23 94 1014.1
20181120145238 38 85 0.0 2.0 0.04 0.22 0.23 93 1014.1
20181120144735 38 85 0.0 5.0 0.03 0.22 0.22 93 1014.1
20181120144231 38 85 0.0 5.0 0.03 0.22 0.22 93 1014.2
20181120143730 38 265 0.0 4.0 0.03 0.21 0.22 93 1014.1
20181120143228 38 85 2.0 4.0 0.03 0.21 0.22 93 1014.1
20181120142724 38 18 2.0 4.0 0.02 0.20 0.21 93 1014.0
20181120142220 38 108 0.0 4.0 0.02 0.20 0.20 93 1014.4
20181120141716 38 130 3.0 4.0 0.02 0.20 0.20 93 1014.3
20181120141212 38 355 0.0 4.0 0.02 0.20 0.20 92 1014.3
20181120140709 38 40 0.0 4.0 0.03 0.20 0.20 92 1014.5
20181120140205 38 333 1.0 4.0 0.03 0.19 0.20 92 1014.4
20181120135702 38 85 3.0 4.0 0.03 0.19 0.20 92 1014.6
20181120135157 38 130 1.0 3.0 0.04 0.19 0.19 92 1014.7
20181120134654 38 85 1.0 7.0 0.04 0.19 0.19 92 1014.6
20181120134149 38 40 3.0 8.0 0.04 0.19 0.19 92 1014.5
20181120133646 38 355 2.0 8.0 0.05 0.19 0.19 92 1014.4
20181120133142 38 85 3.0 6.0 0.05 0.18 0.19 92 1014.5
20181120132639 38 355 5.0 6.0 0.05 0.18 0.19 92 1014.6
20181120132135 38 310 1.0 7.0 0.06 0.18 0.19 92 1014.5
20181120131631 38 198 4.0 7.0 0.06 0.17 0.18 92 1014.6
20181120131128 38 85 4.0 7.0 0.07 0.17 0.18 92 1014.5
20181120130623 38 40 3.0 5.0 0.08 0.17 0.17 92 1014.6
20181120130119 38 175 1.0 5.0 0.09 0.16 0.17 91 1014.7
20181120125616 38 85 2.0 4.0 0.09 0.16 0.16 91 1014.4
20181120125112 38 85 2.0 4.0 0.09 0.15 0.16 91 1014.4
20181120124608 38 310 1.0 6.0 0.10 0.15 0.15 91 1014.4
20181120124105 38 40 3.0 6.0 0.10 0.15 0.15 91 1014.4
20181120123601 38 85 1.0 3.0 0.10 0.14 0.14 91 1014.5
20181120123059 38 310 0.0 6.0 0.10 0.13 0.14 90 1014.5
20181120122553 38 355 2.0 7.0 0.10 0.13 0.13 90 1014.4
20181120122052 38 18 4.0 11.0 0.10 0.12 0.12 90 1014.5
20181120121546 38 220 3.0 11.0 0.09 0.11 0.11 90 1014.4
20181120121042 38 40 4.0 7.0 0.08 0.09 0.10 90 1014.5
20181120120542 38 40 4.0 5.0 0.07 0.07 0.09 90 1014.7